Station Charts

 

Station Historical Data
Daily Summary for January 13, 2018 Units:  Metric    English   Both
« Previous Day
Next Day »
Daily Weekly Monthly Yearly Custom
  High: Low: Average:
Temperature: -17.8 °C 7.4 °C 9.2 °C
Dew Point: -17.8 °C 6.3 °C 7.9 °C
Humidity: Humidity % 83 % 91 %
Wind Speed: 0 km/h 0 km/h 1.1 km/h
Wind Gust: 0 km/h - -
Wind:- - South
Pressure: 0 hPa 1020.5 hPa -
Precipitation: 0.51 mm    
Historical Graphs
 
 
Tabular Data for January 13, 2018
Time Temperature Dew Point Pressure Wind Wind Speed Wind Gust Humidity Rainfall Rate (Hourly)
-17.8 °C -17.8 °C 0 hPa Calm     Humidity % 0 mm
00:03 7.4 °C 6.3 °C 1028.3 hPa Calm     93 % 0 mm
00:10 7.4 °C 6.3 °C 1028.3 hPa Calm     93 % 0 mm
00:18 7.4 °C 6.3 °C 1028.3 hPa Calm     93 % 0 mm
00:23 7.4 °C 6.3 °C 1028.3 hPa Calm     93 % 0 mm
00:31 7.5 °C 6.4 °C 1028.3 hPa Calm     93 % 0 mm
00:48 7.5 °C 6.4 °C 1028.3 hPa Calm     93 % 0 mm
00:53 7.5 °C 6.4 °C 1028.3 hPa Calm     93 % 0 mm
01:00 7.4 °C 6.3 °C 1028.3 hPa Calm     93 % 0 mm
01:10 7.4 °C 6.3 °C 1028.7 hPa Calm     93 % 0 mm
01:22 7.4 °C 6.3 °C 1028.7 hPa Calm     93 % 0 mm
01:33 7.4 °C 6.3 °C 1028.3 hPa Calm     93 % 0 mm
01:38 7.4 °C 6.3 °C 1028.3 hPa Calm     93 % 0 mm
01:43 7.4 °C 6.3 °C 1028.3 hPa Calm     93 % 0 mm
01:51 7.4 °C 6.3 °C 1028.7 hPa Calm     93 % 0 mm
02:01 7.4 °C 6.3 °C 1028.7 hPa Calm     93 % 0 mm
02:07 7.4 °C 6.3 °C 1028.7 hPa Calm     93 % 0 mm
02:14 7.4 °C 6.3 °C 1028.7 hPa Calm     93 % 0 mm
02:25 7.4 °C 6.3 °C 1024.3 hPa Calm     93 % 0 mm
02:36 7.4 °C 6.3 °C 1024.3 hPa Calm     93 % 0 mm
02:47 7.5 °C 6.4 °C 1024.3 hPa Calm     93 % 0 mm
02:52 7.4 °C 6.3 °C 1024.3 hPa Calm     93 % 0 mm
03:00 7.5 °C 6.4 °C 1024.3 hPa Calm     93 % 0 mm
03:05 7.5 °C 6.4 °C 1024.3 hPa Calm     93 % 0 mm
03:21 7.5 °C 6.4 °C 1024.6 hPa Calm     93 % 0 mm
03:27 7.6 °C 6.6 °C 1024.6 hPa Calm     93 % 0 mm
03:37 7.6 °C 6.6 °C 1024.6 hPa Calm     93 % 0 mm
03:41 7.6 °C 6.6 °C 1024.6 hPa Calm     93 % 0 mm
03:56 7.5 °C 6.4 °C 1024.3 hPa Calm     93 % 0 mm
04:01 7.5 °C 6.4 °C 1024.3 hPa Calm     93 % 0 mm
04:06 7.5 °C 6.4 °C 1024.3 hPa Calm     93 % 0 mm
04:16 7.4 °C 6.3 °C 1024.3 hPa Calm     93 % 0 mm
04:32 7.4 °C 6.3 °C 1024.3 hPa Calm     93 % 0 mm
04:37 7.5 °C 6.4 °C 1024.3 hPa Calm     93 % 0 mm
04:43 7.5 °C 6.4 °C 1024.3 hPa Calm     93 % 0 mm
04:48 7.5 °C 6.4 °C 1024.6 hPa Calm     93 % 0 mm
04:54 7.5 °C 6.4 °C 1024.6 hPa Calm     93 % 0 mm
05:00 7.5 °C 6.4 °C 1024.6 hPa Calm     93 % 0 mm
05:06 7.5 °C 6.4 °C 1024.6 hPa Calm     93 % 0 mm
05:13 7.5 °C 6.4 °C 1024.6 hPa Calm     93 % 0 mm
05:18 7.5 °C 6.4 °C 1024.6 hPa Calm     93 % 0 mm
05:24 7.5 °C 6.4 °C 1024.6 hPa Calm     93 % 0 mm
05:34 7.6 °C 6.6 °C 1024.6 hPa Calm     93 % 0.51 mm
05:42 7.6 °C 6.6 °C 1024.6 hPa Calm     93 % 0.51 mm
05:55 7.6 °C 6.6 °C 1024.6 hPa Calm     93 % 0.51 mm
06:00 7.6 °C 6.6 °C 1024.6 hPa Calm     93 % 0.51 mm
06:08 7.6 °C 6.6 °C 1024.6 hPa Calm     93 % 0.51 mm
06:16 7.6 °C 6.6 °C 1024.6 hPa Calm     93 % 0.51 mm
06:28 7.6 °C 6.6 °C 1024.6 hPa Calm     93 % 0.51 mm
06:43 7.6 °C 6.6 °C 1024.6 hPa Calm     93 % 0 mm
06:48 7.6 °C 6.6 °C 1024.6 hPa Calm     93 % 0 mm
06:57 7.6 °C 6.6 °C 1024.6 hPa Calm     93 % 0 mm
07:04 7.6 °C 6.6 °C 1024.6 hPa Calm     93 % 0 mm
07:09 7.6 °C 6.6 °C 1024.6 hPa Calm     93 % 0 mm
07:14 7.6 °C 6.6 °C 1024.6 hPa Calm     93 % 0 mm
07:23 7.6 °C 6.6 °C 1024.6 hPa Calm     93 % 0 mm
07:43 7.6 °C 6.6 °C 1024.6 hPa Calm     93 % 0 mm
07:48 7.6 °C 6.6 °C 1024.6 hPa Calm     93 % 0 mm
07:55 7.6 °C 6.6 °C 1024.6 hPa Calm     93 % 0 mm
08:05 7.7 °C 6.7 °C 1024.9 hPa Calm     93 % 0 mm
08:10 7.7 °C 6.7 °C 1024.9 hPa Calm     93 % 0 mm
08:25 7.7 °C 6.7 °C 1024.9 hPa Calm     93 % 0 mm
08:35 7.8 °C 6.7 °C 1024.9 hPa Calm     93 % 0 mm
08:45 7.9 °C 6.8 °C 1024.9 hPa Calm     93 % 0 mm
09:07 8.2 °C 7.1 °C 1025.3 hPa Calm     93 % 0 mm
09:17 8.3 °C 7.2 °C 1025.3 hPa Calm     93 % 0 mm
09:26 8.4 °C 7.3 °C 1025.3 hPa Calm     93 % 0 mm
09:31 8.5 °C 7.4 °C 1025.3 hPa Calm     93 % 0 mm
09:40 8.6 °C 7.6 °C 1025.6 hPa Calm     93 % 0 mm
09:51 8.7 °C 7.6 °C 1025.6 hPa Calm     93 % 0 mm
09:58 8.8 °C 7.7 °C 1025.6 hPa Calm     93 % 0 mm
10:09 9 °C 7.9 °C 1025.6 hPa Calm     93 % 0 mm
10:16 9.2 °C 8.1 °C 1025.6 hPa Calm     93 % 0 mm
10:30 9.4 °C 8.3 °C 1026 hPa Calm     93 % 0 mm
10:39 9.7 °C 8.6 °C 1026 hPa Calm     93 % 0 mm
10:49 10.1 °C 9 °C 1026 hPa Calm     93 % 0 mm
10:54 10.3 °C 9.2 °C 1026 hPa Calm     93 % 0 mm
11:06 10.8 °C 9.7 °C 1025.6 hPa Calm     93 % 0 mm
11:17 11.3 °C 10.2 °C 1025.3 hPa NNW 2.3 km/h   93 % 0 mm
11:23 11.5 °C 10.2 °C 1025.3 hPa NNE 3.7 km/h   92 % 0 mm
11:30 11.6 °C 10.3 °C 1025.3 hPa Calm     92 % 0 mm
11:39 11.6 °C 10.2 °C 1025.3 hPa Calm     91 % 0 mm
11:50 11.7 °C 10.3 °C 1024.9 hPa North 3.7 km/h   91 % 0 mm
11:59 11.7 °C 10.3 °C 1024.9 hPa Calm     91 % 0 mm
12:04 11.9 °C 10.5 °C 1024.6 hPa Calm     91 % 0 mm
12:17 12.3 °C 10.7 °C 1024.3 hPa Calm     90 % 0 mm
12:27 12.5 °C 10.7 °C 1024.3 hPa Calm     89 % 0 mm
12:32 12.6 °C 11 °C 1024.3 hPa Calm     90 % 0 mm
12:40 12.9 °C 11.1 °C 1024.3 hPa Calm     89 % 0 mm
12:45 13.1 °C 11.2 °C 1024.3 hPa Calm     88 % 0 mm
12:50 13.2 °C 11.3 °C 1023.9 hPa Calm     88 % 0 mm
12:57 13.1 °C 11 °C 1023.9 hPa Calm     87 % 0 mm
13:03 12.9 °C 10.9 °C 1023.9 hPa NNW 11.1 km/h   88 % 0 mm
13:08 12.8 °C 10.8 °C 1023.9 hPa NNW 7.6 km/h 7.6 km/h 88 % 0 mm
13:21 12.8 °C 11.1 °C 1023.6 hPa NE 3.7 km/h 3.7 km/h 89 % 0 mm
13:28 12.8 °C 11.1 °C 1023.6 hPa NNW 5.6 km/h   89 % 0 mm
13:48 13.1 °C 11.2 °C 1023.6 hPa NE 3.7 km/h   88 % 0 mm
13:53 13.1 °C 10.8 °C 1023.6 hPa NNW 3.7 km/h   86 % 0 mm
14:01 13.2 °C 10.9 °C 1023.2 hPa North 7.4 km/h   86 % 0 mm
14:07 13.2 °C 10.9 °C 1023.2 hPa Calm   2.3 km/h 86 % 0 mm
14:12 13.2 °C 10.9 °C 1023.2 hPa Calm   2.3 km/h 86 % 0 mm
14:22 13.3 °C 11 °C 1023.2 hPa Calm     86 % 0 mm
14:27 13.3 °C 11.2 °C 1023.2 hPa Calm     87 % 0 mm
14:35 13.4 °C 11.3 °C 1023.2 hPa Calm     87 % 0 mm
14:40 13.4 °C 11.1 °C 1023.2 hPa Calm     86 % 0 mm
14:52 13.5 °C 10.8 °C 1023.2 hPa Calm     84 % 0 mm
14:57 13.6 °C 10.8 °C 1023.2 hPa NNW 7.4 km/h   83 % 0 mm
15:02 13.6 °C 10.9 °C 1023.2 hPa North 3.7 km/h   84 % 0 mm
15:07 13.6 °C 10.8 °C 1023.2 hPa Calm   2.3 km/h 83 % 0 mm
15:19 13.6 °C 11.1 °C 1023.2 hPa Calm     85 % 0 mm
15:26 13.5 °C 11 °C 1023.2 hPa North 5.6 km/h   85 % 0 mm
15:34 13.3 °C 10.8 °C 1023.2 hPa NNE 3.7 km/h   85 % 0 mm
15:41 13.1 °C 10.8 °C 1023.2 hPa NNW 4.7 km/h   86 % 0 mm
15:48 12.8 °C 10.5 °C 1022.9 hPa Calm     86 % 0 mm
15:58 12.6 °C 10.5 °C 1022.9 hPa North 3.7 km/h   87 % 0 mm
16:08 12.4 °C 10.4 °C 1022.9 hPa Calm     88 % 0 mm
16:18 12.2 °C 10.3 °C 1022.6 hPa Calm     88 % 0 mm
16:28 11.9 °C 10 °C 1022.6 hPa Calm     88 % 0 mm
16:34 11.8 °C 10.1 °C 1022.6 hPa NNW 7.4 km/h   89 % 0 mm
16:39 11.6 °C 9.8 °C 1022.6 hPa Calm     89 % 0 mm
16:44 11.5 °C 9.7 °C 1022.6 hPa NNE 3.7 km/h   89 % 0 mm
16:51 11.3 °C 9.7 °C 1022.2 hPa NNW 10 km/h   90 % 0 mm
16:57 11.2 °C 9.6 °C 1022.2 hPa NNE 7.4 km/h 7.4 km/h 90 % 0 mm
17:04 11.1 °C 9.5 °C 1022.2 hPa NNW 5.6 km/h 5.6 km/h 90 % 0 mm
17:19 10.8 °C 9.4 °C 1022.2 hPa Calm     91 % 0 mm
17:25 10.7 °C 9.3 °C 1022.2 hPa NNW 2.9 km/h   91 % 0 mm
17:34 10.4 °C 9 °C 1021.9 hPa Calm     91 % 0 mm
17:40 10.3 °C 8.9 °C 1021.9 hPa Calm     91 % 0 mm
17:45 10.2 °C 8.8 °C 1021.9 hPa Calm     91 % 0 mm
17:53 9.9 °C 8.7 °C 1021.6 hPa Calm     92 % 0 mm
18:00 9.7 °C 8.4 °C 1021.6 hPa Calm     92 % 0 mm
18:25 9.3 °C 8.2 °C 1021.6 hPa Calm     93 % 0 mm
18:32 9.3 °C 8.2 °C 1021.6 hPa Calm     93 % 0 mm
18:39 9.2 °C 8.1 °C 1021.6 hPa Calm     93 % 0 mm
19:08 9.1 °C 8 °C 1021.2 hPa Calm     93 % 0 mm
19:13 9 °C 7.9 °C 1021.2 hPa Calm     93 % 0 mm
19:18 8.9 °C 7.8 °C 1021.6 hPa ENE 3.7 km/h   93 % 0 mm
19:26 8.8 °C 7.7 °C 1021.6 hPa Calm     93 % 0 mm
19:32 8.7 °C 7.6 °C 1021.6 hPa Calm     93 % 0 mm
19:37 8.6 °C 7.6 °C 1021.6 hPa Calm     93 % 0 mm
19:48 8.5 °C 7.4 °C 1021.6 hPa Calm     93 % 0 mm
19:53 8.4 °C 7.3 °C 1021.6 hPa Calm     93 % 0 mm
19:59 8.5 °C 7.4 °C 1021.6 hPa NNE 7.4 km/h   93 % 0 mm
20:07 8.7 °C 7.6 °C 1021.2 hPa NE 11.1 km/h 11.1 km/h 93 % 0 mm
20:14 8.7 °C 7.6 °C 1021.2 hPa NNW 5.6 km/h 5.6 km/h 93 % 0 mm
20:19 8.7 °C 7.6 °C 1021.2 hPa North 5.6 km/h 5.6 km/h 93 % 0 mm
20:25 8.7 °C 7.6 °C 1021.2 hPa North 4.7 km/h 4.7 km/h 93 % 0 mm
20:32 8.7 °C 7.6 °C 1021.2 hPa North 9.3 km/h 9.3 km/h 93 % 0 mm
20:46 8.7 °C 7.6 °C 1021.2 hPa North 10.3 km/h   93 % 0 mm
20:51 8.7 °C 7.6 °C 1021.2 hPa Calm     93 % 0 mm
20:56 8.7 °C 7.6 °C 1021.2 hPa ENE 5.6 km/h 5.6 km/h 93 % 0 mm
21:05 8.7 °C 7.6 °C 1021.2 hPa NW 9.3 km/h 9.3 km/h 93 % 0 mm
21:15 8.6 °C 7.6 °C 1021.2 hPa Calm   2.3 km/h 93 % 0 mm
21:20 8.6 °C 7.6 °C 1021.2 hPa North 3.2 km/h   93 % 0 mm
21:25 8.6 °C 7.6 °C 1021.2 hPa Calm     93 % 0 mm
21:30 8.6 °C 7.6 °C 1021.2 hPa Calm     93 % 0 mm
21:47 8.4 °C 7.3 °C 1021.2 hPa Calm     93 % 0 mm
21:55 8.4 °C 7.3 °C 1021.2 hPa Calm     93 % 0 mm
22:00 8.4 °C 7.3 °C 1021.2 hPa Calm     93 % 0 mm
22:18 8.4 °C 7.3 °C 1021.2 hPa Calm     93 % 0 mm
22:23 8.4 °C 7.3 °C 1021.2 hPa Calm     93 % 0 mm
22:28 8.3 °C 7.2 °C 1021.2 hPa Calm     93 % 0 mm
22:40 8.3 °C 7.2 °C 1021.2 hPa Calm     93 % 0 mm
22:52 8.2 °C 7.1 °C 1020.9 hPa Calm     93 % 0 mm
23:07 8.2 °C 7.1 °C 1020.9 hPa Calm     93 % 0 mm
23:16 8.1 °C 7.1 °C 1020.9 hPa Calm     93 % 0 mm
23:31 8.1 °C 7.1 °C 1020.5 hPa Calm     93 % 0 mm
23:36 8 °C 6.9 °C 1020.5 hPa Calm     93 % 0 mm
23:44 8 °C 6.9 °C 1020.5 hPa Calm     93 % 0 mm
23:49 7.9 °C 6.8 °C 1020.5 hPa Calm     93 % 0 mm
23:56 7.9 °C 6.8 °C 1020.5 hPa Calm     93 % 0 mm
Compliments of Weather Underground - 1.5 mb